sensor_id;sensor_type;location;lat;lon;timestamp;P1;durP1;ratioP1;P2;durP2;ratioP2
5696;SDS011;2873;50.966;7.210;2024-03-08T00:01:47;22.03;;;13.03;;
5696;SDS011;2873;50.966;7.210;2024-03-08T00:04:13;23.50;;;14.77;;
5696;SDS011;2873;50.966;7.210;2024-03-08T00:06:40;20.73;;;13.17;;
5696;SDS011;2873;50.966;7.210;2024-03-08T00:09:06;26.00;;;14.00;;
5696;SDS011;2873;50.966;7.210;2024-03-08T00:11:33;21.33;;;13.40;;
5696;SDS011;2873;50.966;7.210;2024-03-08T00:14:00;25.53;;;13.90;;
5696;SDS011;2873;50.966;7.210;2024-03-08T00:16:25;26.93;;;14.40;;
5696;SDS011;2873;50.966;7.210;2024-03-08T00:18:51;22.30;;;13.60;;
5696;SDS011;2873;50.966;7.210;2024-03-08T00:21:16;28.93;;;13.40;;
5696;SDS011;2873;50.966;7.210;2024-03-08T00:23:42;26.27;;;15.27;;
5696;SDS011;2873;50.966;7.210;2024-03-08T00:26:08;21.60;;;12.23;;
5696;SDS011;2873;50.966;7.210;2024-03-08T00:28:34;25.27;;;14.80;;
5696;SDS011;2873;50.966;7.210;2024-03-08T00:30:59;20.50;;;12.20;;
5696;SDS011;2873;50.966;7.210;2024-03-08T00:33:25;28.23;;;14.50;;
5696;SDS011;2873;50.966;7.210;2024-03-08T00:35:52;25.43;;;14.10;;
5696;SDS011;2873;50.966;7.210;2024-03-08T00:38:18;23.07;;;13.50;;
5696;SDS011;2873;50.966;7.210;2024-03-08T00:40:44;22.10;;;13.83;;
5696;SDS011;2873;50.966;7.210;2024-03-08T00:43:10;22.83;;;14.30;;
5696;SDS011;2873;50.966;7.210;2024-03-08T00:45:36;24.87;;;14.40;;
5696;SDS011;2873;50.966;7.210;2024-03-08T00:48:02;23.60;;;14.13;;
5696;SDS011;2873;50.966;7.210;2024-03-08T00:50:28;26.07;;;13.53;;
5696;SDS011;2873;50.966;7.210;2024-03-08T00:52:54;24.43;;;13.10;;
5696;SDS011;2873;50.966;7.210;2024-03-08T00:55:19;22.90;;;13.37;;
5696;SDS011;2873;50.966;7.210;2024-03-08T00:57:45;22.97;;;13.83;;
5696;SDS011;2873;50.966;7.210;2024-03-08T01:00:11;30.33;;;13.80;;
5696;SDS011;2873;50.966;7.210;2024-03-08T01:02:40;33.13;;;13.73;;
5696;SDS011;2873;50.966;7.210;2024-03-08T01:05:06;23.33;;;14.07;;
5696;SDS011;2873;50.966;7.210;2024-03-08T01:07:32;23.40;;;14.07;;
5696;SDS011;2873;50.966;7.210;2024-03-08T01:09:59;20.50;;;13.07;;
5696;SDS011;2873;50.966;7.210;2024-03-08T01:12:25;18.97;;;11.97;;
5696;SDS011;2873;50.966;7.210;2024-03-08T01:14:51;23.40;;;13.30;;
5696;SDS011;2873;50.966;7.210;2024-03-08T01:17:17;26.20;;;13.80;;
5696;SDS011;2873;50.966;7.210;2024-03-08T01:19:42;26.27;;;14.07;;
5696;SDS011;2873;50.966;7.210;2024-03-08T01:22:09;26.10;;;13.33;;
5696;SDS011;2873;50.966;7.210;2024-03-08T01:24:35;24.13;;;14.27;;
5696;SDS011;2873;50.966;7.210;2024-03-08T01:27:02;22.93;;;12.93;;
5696;SDS011;2873;50.966;7.210;2024-03-08T01:29:27;37.27;;;14.63;;
5696;SDS011;2873;50.966;7.210;2024-03-08T01:31:54;24.27;;;13.73;;
5696;SDS011;2873;50.966;7.210;2024-03-08T01:34:21;22.00;;;13.17;;
5696;SDS011;2873;50.966;7.210;2024-03-08T01:36:47;27.80;;;13.83;;
5696;SDS011;2873;50.966;7.210;2024-03-08T01:39:13;23.10;;;13.23;;
5696;SDS011;2873;50.966;7.210;2024-03-08T01:41:39;25.53;;;13.33;;
5696;SDS011;2873;50.966;7.210;2024-03-08T01:44:05;22.10;;;13.40;;
5696;SDS011;2873;50.966;7.210;2024-03-08T01:46:32;21.10;;;13.80;;
5696;SDS011;2873;50.966;7.210;2024-03-08T01:48:59;21.60;;;12.67;;
5696;SDS011;2873;50.966;7.210;2024-03-08T01:51:26;23.30;;;13.17;;
5696;SDS011;2873;50.966;7.210;2024-03-08T01:53:53;25.20;;;14.17;;
5696;SDS011;2873;50.966;7.210;2024-03-08T01:56:22;22.53;;;12.63;;
5696;SDS011;2873;50.966;7.210;2024-03-08T01:58:50;26.10;;;14.37;;
5696;SDS011;2873;50.966;7.210;2024-03-08T02:01:15;25.17;;;14.50;;
5696;SDS011;2873;50.966;7.210;2024-03-08T02:03:41;25.30;;;12.77;;
5696;SDS011;2873;50.966;7.210;2024-03-08T02:06:09;23.50;;;14.47;;
5696;SDS011;2873;50.966;7.210;2024-03-08T02:08:37;21.90;;;13.00;;
5696;SDS011;2873;50.966;7.210;2024-03-08T02:11:03;27.77;;;14.33;;
5696;SDS011;2873;50.966;7.210;2024-03-08T02:13:29;27.67;;;16.07;;
5696;SDS011;2873;50.966;7.210;2024-03-08T02:15:56;28.20;;;15.13;;
5696;SDS011;2873;50.966;7.210;2024-03-08T02:18:25;26.03;;;13.90;;
5696;SDS011;2873;50.966;7.210;2024-03-08T02:23:24;22.90;;;14.57;;
5696;SDS011;2873;50.966;7.210;2024-03-08T02:25:51;22.30;;;13.60;;
5696;SDS011;2873;50.966;7.210;2024-03-08T02:28:18;29.80;;;15.20;;
5696;SDS011;2873;50.966;7.210;2024-03-08T02:30:44;27.60;;;15.23;;
5696;SDS011;2873;50.966;7.210;2024-03-08T02:33:12;30.27;;;14.97;;
5696;SDS011;2873;50.966;7.210;2024-03-08T02:35:41;39.27;;;16.07;;
5696;SDS011;2873;50.966;7.210;2024-03-08T02:38:07;25.90;;;14.80;;
5696;SDS011;2873;50.966;7.210;2024-03-08T02:40:33;22.47;;;13.50;;
5696;SDS011;2873;50.966;7.210;2024-03-08T02:42:58;20.70;;;13.17;;
5696;SDS011;2873;50.966;7.210;2024-03-08T02:45:24;23.20;;;13.67;;
5696;SDS011;2873;50.966;7.210;2024-03-08T02:47:49;24.50;;;14.30;;
5696;SDS011;2873;50.966;7.210;2024-03-08T02:50:16;28.00;;;15.43;;
5696;SDS011;2873;50.966;7.210;2024-03-08T02:52:42;30.50;;;14.47;;
5696;SDS011;2873;50.966;7.210;2024-03-08T02:55:08;28.17;;;13.93;;
5696;SDS011;2873;50.966;7.210;2024-03-08T02:57:35;25.47;;;13.90;;
5696;SDS011;2873;50.966;7.210;2024-03-08T03:00:02;23.83;;;14.37;;
5696;SDS011;2873;50.966;7.210;2024-03-08T03:02:28;28.10;;;14.30;;
5696;SDS011;2873;50.966;7.210;2024-03-08T03:04:54;28.67;;;15.77;;
5696;SDS011;2873;50.966;7.210;2024-03-08T03:07:20;23.80;;;13.80;;
5696;SDS011;2873;50.966;7.210;2024-03-08T03:09:46;23.73;;;13.10;;
5696;SDS011;2873;50.966;7.210;2024-03-08T03:12:12;23.17;;;13.57;;
5696;SDS011;2873;50.966;7.210;2024-03-08T03:14:39;25.87;;;14.73;;
5696;SDS011;2873;50.966;7.210;2024-03-08T03:17:04;26.53;;;14.43;;
5696;SDS011;2873;50.966;7.210;2024-03-08T03:19:30;23.53;;;13.20;;
5696;SDS011;2873;50.966;7.210;2024-03-08T03:21:56;24.70;;;13.97;;
5696;SDS011;2873;50.966;7.210;2024-03-08T03:24:22;26.60;;;13.73;;
5696;SDS011;2873;50.966;7.210;2024-03-08T03:26:48;25.80;;;13.40;;
5696;SDS011;2873;50.966;7.210;2024-03-08T03:29:14;26.30;;;13.50;;
5696;SDS011;2873;50.966;7.210;2024-03-08T03:31:41;21.33;;;13.40;;
5696;SDS011;2873;50.966;7.210;2024-03-08T03:34:10;30.07;;;13.90;;
5696;SDS011;2873;50.966;7.210;2024-03-08T03:36:36;29.63;;;14.73;;
5696;SDS011;2873;50.966;7.210;2024-03-08T03:39:03;31.43;;;15.03;;
5696;SDS011;2873;50.966;7.210;2024-03-08T03:41:41;29.70;;;15.40;;
5696;SDS011;2873;50.966;7.210;2024-03-08T03:44:11;26.77;;;14.43;;
5696;SDS011;2873;50.966;7.210;2024-03-08T03:46:36;23.60;;;13.23;;
5696;SDS011;2873;50.966;7.210;2024-03-08T03:49:02;24.83;;;13.33;;
5696;SDS011;2873;50.966;7.210;2024-03-08T03:51:28;23.67;;;13.97;;
5696;SDS011;2873;50.966;7.210;2024-03-08T03:53:54;25.43;;;14.47;;
5696;SDS011;2873;50.966;7.210;2024-03-08T03:56:24;24.57;;;13.90;;
5696;SDS011;2873;50.966;7.210;2024-03-08T03:58:51;32.40;;;15.83;;
5696;SDS011;2873;50.966;7.210;2024-03-08T04:01:16;28.70;;;15.00;;
5696;SDS011;2873;50.966;7.210;2024-03-08T04:03:42;30.00;;;14.83;;
5696;SDS011;2873;50.966;7.210;2024-03-08T04:06:08;25.77;;;13.90;;
5696;SDS011;2873;50.966;7.210;2024-03-08T04:08:33;32.47;;;15.10;;
5696;SDS011;2873;50.966;7.210;2024-03-08T04:10:59;26.33;;;13.80;;
5696;SDS011;2873;50.966;7.210;2024-03-08T04:13:25;28.00;;;14.53;;
5696;SDS011;2873;50.966;7.210;2024-03-08T04:15:51;28.27;;;14.77;;
5696;SDS011;2873;50.966;7.210;2024-03-08T04:18:17;31.97;;;15.57;;
5696;SDS011;2873;50.966;7.210;2024-03-08T04:20:43;24.23;;;13.77;;
5696;SDS011;2873;50.966;7.210;2024-03-08T04:23:08;24.13;;;14.30;;
5696;SDS011;2873;50.966;7.210;2024-03-08T04:25:34;22.80;;;13.00;;
5696;SDS011;2873;50.966;7.210;2024-03-08T04:27:59;25.23;;;13.73;;
5696;SDS011;2873;50.966;7.210;2024-03-08T04:30:25;30.67;;;16.70;;
5696;SDS011;2873;50.966;7.210;2024-03-08T04:32:53;29.48;;;15.98;;
5696;SDS011;2873;50.966;7.210;2024-03-08T04:35:19;27.90;;;15.33;;
5696;SDS011;2873;50.966;7.210;2024-03-08T04:37:45;25.97;;;14.70;;
5696;SDS011;2873;50.966;7.210;2024-03-08T04:40:11;24.00;;;14.40;;
5696;SDS011;2873;50.966;7.210;2024-03-08T04:42:37;30.80;;;14.97;;
5696;SDS011;2873;50.966;7.210;2024-03-08T04:45:04;23.73;;;14.87;;
5696;SDS011;2873;50.966;7.210;2024-03-08T04:47:30;22.80;;;14.10;;
5696;SDS011;2873;50.966;7.210;2024-03-08T04:49:56;25.20;;;14.73;;
5696;SDS011;2873;50.966;7.210;2024-03-08T04:52:23;27.23;;;14.80;;
5696;SDS011;2873;50.966;7.210;2024-03-08T04:54:48;24.20;;;13.33;;
5696;SDS011;2873;50.966;7.210;2024-03-08T04:57:14;27.67;;;14.07;;
5696;SDS011;2873;50.966;7.210;2024-03-08T04:59:39;31.50;;;14.77;;
5696;SDS011;2873;50.966;7.210;2024-03-08T05:02:05;26.63;;;13.70;;
5696;SDS011;2873;50.966;7.210;2024-03-08T05:04:32;27.87;;;13.57;;
5696;SDS011;2873;50.966;7.210;2024-03-08T05:06:58;26.07;;;14.77;;
5696;SDS011;2873;50.966;7.210;2024-03-08T05:09:26;23.93;;;14.90;;
5696;SDS011;2873;50.966;7.210;2024-03-08T05:11:56;25.50;;;13.17;;
5696;SDS011;2873;50.966;7.210;2024-03-08T05:14:23;26.70;;;14.27;;
5696;SDS011;2873;50.966;7.210;2024-03-08T05:16:50;27.33;;;15.57;;
5696;SDS011;2873;50.966;7.210;2024-03-08T05:19:16;30.83;;;15.97;;
5696;SDS011;2873;50.966;7.210;2024-03-08T05:21:42;28.23;;;15.23;;
5696;SDS011;2873;50.966;7.210;2024-03-08T05:24:09;27.50;;;14.23;;
5696;SDS011;2873;50.966;7.210;2024-03-08T05:26:35;25.20;;;14.37;;
5696;SDS011;2873;50.966;7.210;2024-03-08T05:29:02;25.57;;;14.10;;
5696;SDS011;2873;50.966;7.210;2024-03-08T05:31:28;26.23;;;14.60;;
5696;SDS011;2873;50.966;7.210;2024-03-08T05:33:55;29.60;;;15.60;;
5696;SDS011;2873;50.966;7.210;2024-03-08T05:36:21;28.00;;;14.73;;
5696;SDS011;2873;50.966;7.210;2024-03-08T05:38:47;25.10;;;14.50;;
5696;SDS011;2873;50.966;7.210;2024-03-08T05:41:14;29.40;;;14.47;;
5696;SDS011;2873;50.966;7.210;2024-03-08T05:43:40;26.73;;;14.77;;
5696;SDS011;2873;50.966;7.210;2024-03-08T05:46:06;31.50;;;15.10;;
5696;SDS011;2873;50.966;7.210;2024-03-08T05:48:31;27.43;;;15.37;;
5696;SDS011;2873;50.966;7.210;2024-03-08T05:50:57;28.33;;;13.47;;
5696;SDS011;2873;50.966;7.210;2024-03-08T05:53:23;28.60;;;14.80;;
5696;SDS011;2873;50.966;7.210;2024-03-08T05:55:49;28.40;;;14.63;;
5696;SDS011;2873;50.966;7.210;2024-03-08T05:58:14;29.20;;;15.27;;
5696;SDS011;2873;50.966;7.210;2024-03-08T06:00:40;26.97;;;14.80;;
5696;SDS011;2873;50.966;7.210;2024-03-08T06:03:06;29.07;;;14.60;;
5696;SDS011;2873;50.966;7.210;2024-03-08T06:05:31;33.13;;;15.67;;
5696;SDS011;2873;50.966;7.210;2024-03-08T06:07:57;28.37;;;14.43;;
5696;SDS011;2873;50.966;7.210;2024-03-08T06:10:22;29.57;;;14.13;;
5696;SDS011;2873;50.966;7.210;2024-03-08T06:12:48;22.80;;;13.90;;
5696;SDS011;2873;50.966;7.210;2024-03-08T06:15:14;25.93;;;15.00;;
5696;SDS011;2873;50.966;7.210;2024-03-08T06:17:40;30.73;;;15.27;;
5696;SDS011;2873;50.966;7.210;2024-03-08T06:20:06;24.97;;;14.30;;
5696;SDS011;2873;50.966;7.210;2024-03-08T06:22:38;31.87;;;16.07;;
5696;SDS011;2873;50.966;7.210;2024-03-08T06:25:10;25.90;;;14.17;;
5696;SDS011;2873;50.966;7.210;2024-03-08T06:27:39;29.83;;;15.00;;
5696;SDS011;2873;50.966;7.210;2024-03-08T06:30:05;28.40;;;14.33;;
5696;SDS011;2873;50.966;7.210;2024-03-08T06:32:31;29.47;;;13.90;;
5696;SDS011;2873;50.966;7.210;2024-03-08T06:35:00;24.97;;;13.73;;
5696;SDS011;2873;50.966;7.210;2024-03-08T06:37:31;28.63;;;15.70;;
5696;SDS011;2873;50.966;7.210;2024-03-08T06:39:57;29.00;;;14.57;;
5696;SDS011;2873;50.966;7.210;2024-03-08T06:42:23;31.43;;;15.40;;
5696;SDS011;2873;50.966;7.210;2024-03-08T06:44:48;26.93;;;13.73;;
5696;SDS011;2873;50.966;7.210;2024-03-08T06:47:15;26.03;;;15.00;;
5696;SDS011;2873;50.966;7.210;2024-03-08T06:49:44;29.70;;;14.97;;
5696;SDS011;2873;50.966;7.210;2024-03-08T06:52:10;26.67;;;14.73;;
5696;SDS011;2873;50.966;7.210;2024-03-08T06:54:36;26.50;;;14.70;;
5696;SDS011;2873;50.966;7.210;2024-03-08T06:57:04;28.40;;;14.37;;
5696;SDS011;2873;50.966;7.210;2024-03-08T06:59:30;28.87;;;15.80;;
5696;SDS011;2873;50.966;7.210;2024-03-08T07:01:56;31.10;;;14.90;;
5696;SDS011;2873;50.966;7.210;2024-03-08T07:04:24;26.80;;;14.70;;
5696;SDS011;2873;50.966;7.210;2024-03-08T07:06:53;26.47;;;14.20;;
5696;SDS011;2873;50.966;7.210;2024-03-08T07:09:19;27.97;;;14.30;;
5696;SDS011;2873;50.966;7.210;2024-03-08T07:11:44;27.83;;;14.83;;
5696;SDS011;2873;50.966;7.210;2024-03-08T07:14:11;31.13;;;15.07;;
5696;SDS011;2873;50.966;7.210;2024-03-08T07:16:37;24.93;;;14.00;;
5696;SDS011;2873;50.966;7.210;2024-03-08T07:19:04;28.57;;;14.33;;
5696;SDS011;2873;50.966;7.210;2024-03-08T07:21:30;27.73;;;15.13;;
5696;SDS011;2873;50.966;7.210;2024-03-08T07:23:56;30.50;;;13.67;;
5696;SDS011;2873;50.966;7.210;2024-03-08T07:26:24;27.63;;;13.80;;
5696;SDS011;2873;50.966;7.210;2024-03-08T07:28:50;25.40;;;13.07;;
5696;SDS011;2873;50.966;7.210;2024-03-08T07:31:16;26.77;;;14.20;;
5696;SDS011;2873;50.966;7.210;2024-03-08T07:33:50;28.50;;;13.33;;
5696;SDS011;2873;50.966;7.210;2024-03-08T07:36:16;24.97;;;13.63;;
5696;SDS011;2873;50.966;7.210;2024-03-08T07:38:41;30.73;;;15.37;;
5696;SDS011;2873;50.966;7.210;2024-03-08T07:41:07;26.23;;;13.07;;
5696;SDS011;2873;50.966;7.210;2024-03-08T07:43:33;25.23;;;15.30;;
5696;SDS011;2873;50.966;7.210;2024-03-08T07:45:59;27.63;;;15.00;;
5696;SDS011;2873;50.966;7.210;2024-03-08T07:48:24;31.90;;;14.50;;
5696;SDS011;2873;50.966;7.210;2024-03-08T07:50:50;28.37;;;14.50;;
5696;SDS011;2873;50.966;7.210;2024-03-08T07:53:16;29.17;;;14.67;;
5696;SDS011;2873;50.966;7.210;2024-03-08T07:55:42;31.57;;;15.00;;
5696;SDS011;2873;50.966;7.210;2024-03-08T07:58:08;27.33;;;14.30;;
5696;SDS011;2873;50.966;7.210;2024-03-08T08:00:35;30.10;;;15.73;;
5696;SDS011;2873;50.966;7.210;2024-03-08T08:03:01;25.47;;;13.90;;
5696;SDS011;2873;50.966;7.210;2024-03-08T08:05:28;27.33;;;14.30;;
5696;SDS011;2873;50.966;7.210;2024-03-08T08:07:53;24.40;;;14.70;;
5696;SDS011;2873;50.966;7.210;2024-03-08T08:10:19;27.73;;;14.30;;
5696;SDS011;2873;50.966;7.210;2024-03-08T08:12:50;28.17;;;13.90;;
5696;SDS011;2873;50.966;7.210;2024-03-08T08:15:19;24.67;;;13.63;;
5696;SDS011;2873;50.966;7.210;2024-03-08T08:17:45;30.40;;;14.83;;
5696;SDS011;2873;50.966;7.210;2024-03-08T08:20:11;25.97;;;14.30;;
5696;SDS011;2873;50.966;7.210;2024-03-08T08:22:40;29.93;;;16.50;;
5696;SDS011;2873;50.966;7.210;2024-03-08T08:25:08;28.00;;;14.80;;
5696;SDS011;2873;50.966;7.210;2024-03-08T08:27:35;25.37;;;14.97;;
5696;SDS011;2873;50.966;7.210;2024-03-08T08:30:04;27.67;;;14.17;;
5696;SDS011;2873;50.966;7.210;2024-03-08T08:32:33;26.67;;;14.03;;
5696;SDS011;2873;50.966;7.210;2024-03-08T08:34:59;30.20;;;15.37;;
5696;SDS011;2873;50.966;7.210;2024-03-08T08:37:25;22.90;;;13.10;;
5696;SDS011;2873;50.966;7.210;2024-03-08T08:39:51;26.07;;;13.20;;
5696;SDS011;2873;50.966;7.210;2024-03-08T08:42:17;28.93;;;15.27;;
5696;SDS011;2873;50.966;7.210;2024-03-08T08:44:43;25.47;;;13.47;;
5696;SDS011;2873;50.966;7.210;2024-03-08T08:47:08;25.20;;;12.53;;
5696;SDS011;2873;50.966;7.210;2024-03-08T08:49:34;25.43;;;13.73;;
5696;SDS011;2873;50.966;7.210;2024-03-08T08:52:00;26.43;;;14.90;;
5696;SDS011;2873;50.966;7.210;2024-03-08T08:54:26;28.20;;;13.57;;
5696;SDS011;2873;50.966;7.210;2024-03-08T08:56:52;23.90;;;13.27;;
5696;SDS011;2873;50.966;7.210;2024-03-08T08:59:18;25.63;;;14.23;;
5696;SDS011;2873;50.966;7.210;2024-03-08T09:01:44;23.40;;;14.20;;
5696;SDS011;2873;50.966;7.210;2024-03-08T09:04:14;21.27;;;12.67;;
5696;SDS011;2873;50.966;7.210;2024-03-08T09:06:40;22.33;;;12.60;;
5696;SDS011;2873;50.966;7.210;2024-03-08T09:09:06;26.53;;;14.00;;
5696;SDS011;2873;50.966;7.210;2024-03-08T09:11:35;26.37;;;13.60;;
5696;SDS011;2873;50.966;7.210;2024-03-08T09:14:06;24.60;;;13.90;;
5696;SDS011;2873;50.966;7.210;2024-03-08T09:16:32;22.87;;;14.33;;
5696;SDS011;2873;50.966;7.210;2024-03-08T09:18:58;24.73;;;14.00;;
5696;SDS011;2873;50.966;7.210;2024-03-08T09:21:23;27.53;;;13.40;;
5696;SDS011;2873;50.966;7.210;2024-03-08T09:23:49;23.80;;;14.10;;
5696;SDS011;2873;50.966;7.210;2024-03-08T09:26:15;24.90;;;13.90;;
5696;SDS011;2873;50.966;7.210;2024-03-08T09:28:41;25.17;;;14.33;;
5696;SDS011;2873;50.966;7.210;2024-03-08T09:31:07;28.60;;;14.70;;
5696;SDS011;2873;50.966;7.210;2024-03-08T09:33:32;18.00;;;11.97;;
5696;SDS011;2873;50.966;7.210;2024-03-08T09:35:58;24.60;;;13.97;;
5696;SDS011;2873;50.966;7.210;2024-03-08T09:38:24;20.73;;;13.07;;
5696;SDS011;2873;50.966;7.210;2024-03-08T09:40:50;23.70;;;12.77;;
5696;SDS011;2873;50.966;7.210;2024-03-08T09:43:16;21.97;;;12.80;;
5696;SDS011;2873;50.966;7.210;2024-03-08T09:45:43;29.07;;;14.27;;
5696;SDS011;2873;50.966;7.210;2024-03-08T09:48:11;22.00;;;13.70;;
5696;SDS011;2873;50.966;7.210;2024-03-08T09:50:39;22.27;;;12.83;;
5696;SDS011;2873;50.966;7.210;2024-03-08T09:53:07;24.23;;;14.07;;
5696;SDS011;2873;50.966;7.210;2024-03-08T09:55:37;22.00;;;12.90;;
5696;SDS011;2873;50.966;7.210;2024-03-08T09:58:07;23.33;;;11.70;;
5696;SDS011;2873;50.966;7.210;2024-03-08T10:00:54;23.60;;;13.43;;
5696;SDS011;2873;50.966;7.210;2024-03-08T10:03:22;21.37;;;12.87;;
5696;SDS011;2873;50.966;7.210;2024-03-08T10:05:48;27.97;;;13.03;;
5696;SDS011;2873;50.966;7.210;2024-03-08T10:08:13;23.00;;;13.20;;
5696;SDS011;2873;50.966;7.210;2024-03-08T10:10:39;19.37;;;12.60;;
5696;SDS011;2873;50.966;7.210;2024-03-08T10:13:05;22.00;;;12.80;;
5696;SDS011;2873;50.966;7.210;2024-03-08T10:15:36;18.77;;;11.93;;
5696;SDS011;2873;50.966;7.210;2024-03-08T10:18:03;18.30;;;12.00;;
5696;SDS011;2873;50.966;7.210;2024-03-08T10:20:30;22.60;;;12.83;;
5696;SDS011;2873;50.966;7.210;2024-03-08T10:22:59;20.80;;;12.33;;
5696;SDS011;2873;50.966;7.210;2024-03-08T10:25:25;19.67;;;12.27;;
5696;SDS011;2873;50.966;7.210;2024-03-08T10:27:51;23.83;;;13.60;;
5696;SDS011;2873;50.966;7.210;2024-03-08T10:30:17;17.00;;;12.10;;
5696;SDS011;2873;50.966;7.210;2024-03-08T10:32:46;18.10;;;11.97;;
5696;SDS011;2873;50.966;7.210;2024-03-08T10:35:13;20.60;;;12.30;;
5696;SDS011;2873;50.966;7.210;2024-03-08T10:37:46;17.37;;;11.83;;
5696;SDS011;2873;50.966;7.210;2024-03-08T10:40:17;19.00;;;12.70;;
5696;SDS011;2873;50.966;7.210;2024-03-08T10:42:51;15.70;;;11.90;;
5696;SDS011;2873;50.966;7.210;2024-03-08T10:45:22;18.60;;;11.83;;
5696;SDS011;2873;50.966;7.210;2024-03-08T10:50:53;19.90;;;11.80;;
5696;SDS011;2873;50.966;7.210;2024-03-08T10:53:19;30.03;;;12.30;;
5696;SDS011;2873;50.966;7.210;2024-03-08T10:55:47;20.40;;;12.53;;
5696;SDS011;2873;50.966;7.210;2024-03-08T10:58:18;17.80;;;11.30;;
5696;SDS011;2873;50.966;7.210;2024-03-08T11:00:48;17.83;;;11.23;;
5696;SDS011;2873;50.966;7.210;2024-03-08T11:08:48;15.93;;;11.63;;
5696;SDS011;2873;50.966;7.210;2024-03-08T11:11:23;17.33;;;10.93;;
5696;SDS011;2873;50.966;7.210;2024-03-08T11:13:55;19.90;;;12.00;;
5696;SDS011;2873;50.966;7.210;2024-03-08T11:16:36;18.97;;;11.93;;
5696;SDS011;2873;50.966;7.210;2024-03-08T11:19:26;18.33;;;10.23;;
5696;SDS011;2873;50.966;7.210;2024-03-08T11:21:57;18.63;;;11.27;;
5696;SDS011;2873;50.966;7.210;2024-03-08T11:24:23;15.17;;;10.33;;
5696;SDS011;2873;50.966;7.210;2024-03-08T11:26:49;15.00;;;10.87;;
5696;SDS011;2873;50.966;7.210;2024-03-08T11:32:14;18.73;;;11.07;;
5696;SDS011;2873;50.966;7.210;2024-03-08T11:34:42;17.40;;;11.17;;
5696;SDS011;2873;50.966;7.210;2024-03-08T11:37:12;15.23;;;9.53;;
5696;SDS011;2873;50.966;7.210;2024-03-08T11:39:53;12.47;;;9.23;;
5696;SDS011;2873;50.966;7.210;2024-03-08T11:42:24;13.87;;;9.87;;
5696;SDS011;2873;50.966;7.210;2024-03-08T11:44:51;12.20;;;8.80;;
5696;SDS011;2873;50.966;7.210;2024-03-08T11:47:18;12.10;;;9.27;;
5696;SDS011;2873;50.966;7.210;2024-03-08T11:49:44;19.43;;;9.07;;
5696;SDS011;2873;50.966;7.210;2024-03-08T11:52:12;13.30;;;9.87;;
5696;SDS011;2873;50.966;7.210;2024-03-08T11:54:43;12.80;;;8.10;;
5696;SDS011;2873;50.966;7.210;2024-03-08T11:57:17;15.73;;;9.00;;
5696;SDS011;2873;50.966;7.210;2024-03-08T11:59:53;10.57;;;8.10;;
5696;SDS011;2873;50.966;7.210;2024-03-08T12:02:20;15.73;;;9.90;;
5696;SDS011;2873;50.966;7.210;2024-03-08T12:04:45;15.27;;;9.13;;
5696;SDS011;2873;50.966;7.210;2024-03-08T12:07:11;15.43;;;10.23;;
5696;SDS011;2873;50.966;7.210;2024-03-08T12:09:39;36.00;;;10.80;;
5696;SDS011;2873;50.966;7.210;2024-03-08T12:12:06;18.30;;;10.07;;
5696;SDS011;2873;50.966;7.210;2024-03-08T12:14:33;14.50;;;9.40;;
5696;SDS011;2873;50.966;7.210;2024-03-08T12:16:59;12.17;;;9.40;;
5696;SDS011;2873;50.966;7.210;2024-03-08T12:19:26;14.13;;;9.57;;
5696;SDS011;2873;50.966;7.210;2024-03-08T12:21:54;11.37;;;9.60;;
5696;SDS011;2873;50.966;7.210;2024-03-08T12:24:21;11.53;;;10.20;;
5696;SDS011;2873;50.966;7.210;2024-03-08T12:26:46;11.57;;;8.80;;
5696;SDS011;2873;50.966;7.210;2024-03-08T12:29:24;10.53;;;9.13;;
5696;SDS011;2873;50.966;7.210;2024-03-08T12:31:53;16.83;;;10.23;;
5696;SDS011;2873;50.966;7.210;2024-03-08T12:34:20;11.10;;;9.07;;
5696;SDS011;2873;50.966;7.210;2024-03-08T12:36:46;11.80;;;9.57;;
5696;SDS011;2873;50.966;7.210;2024-03-08T12:39:16;11.93;;;9.80;;
5696;SDS011;2873;50.966;7.210;2024-03-08T12:41:47;10.17;;;9.17;;
5696;SDS011;2873;50.966;7.210;2024-03-08T12:44:13;10.40;;;9.10;;
5696;SDS011;2873;50.966;7.210;2024-03-08T12:46:38;8.83;;;8.03;;
5696;SDS011;2873;50.966;7.210;2024-03-08T12:49:09;11.33;;;9.00;;
5696;SDS011;2873;50.966;7.210;2024-03-08T12:51:35;11.07;;;9.90;;
5696;SDS011;2873;50.966;7.210;2024-03-08T12:54:02;12.27;;;9.37;;
5696;SDS011;2873;50.966;7.210;2024-03-08T12:56:31;16.13;;;9.77;;
5696;SDS011;2873;50.966;7.210;2024-03-08T12:58:58;23.17;;;11.43;;
5696;SDS011;2873;50.966;7.210;2024-03-08T13:01:25;17.23;;;12.77;;
5696;SDS011;2873;50.966;7.210;2024-03-08T13:03:51;10.73;;;9.63;;
5696;SDS011;2873;50.966;7.210;2024-03-08T13:06:17;10.57;;;9.53;;
5696;SDS011;2873;50.966;7.210;2024-03-08T13:08:46;14.63;;;11.33;;
5696;SDS011;2873;50.966;7.210;2024-03-08T13:11:13;13.00;;;10.90;;
5696;SDS011;2873;50.966;7.210;2024-03-08T13:13:42;12.87;;;11.30;;
5696;SDS011;2873;50.966;7.210;2024-03-08T13:16:09;13.80;;;11.20;;
5696;SDS011;2873;50.966;7.210;2024-03-08T13:18:36;11.37;;;10.17;;
5696;SDS011;2873;50.966;7.210;2024-03-08T13:21:01;11.03;;;9.73;;
5696;SDS011;2873;50.966;7.210;2024-03-08T13:23:31;11.00;;;9.87;;
5696;SDS011;2873;50.966;7.210;2024-03-08T13:25:56;12.70;;;10.20;;
5696;SDS011;2873;50.966;7.210;2024-03-08T13:28:22;13.47;;;11.10;;
5696;SDS011;2873;50.966;7.210;2024-03-08T13:30:53;12.50;;;10.57;;
5696;SDS011;2873;50.966;7.210;2024-03-08T13:33:18;12.97;;;10.77;;
5696;SDS011;2873;50.966;7.210;2024-03-08T13:35:45;12.17;;;10.90;;
5696;SDS011;2873;50.966;7.210;2024-03-08T13:38:11;12.37;;;11.10;;
5696;SDS011;2873;50.966;7.210;2024-03-08T13:40:38;13.10;;;10.47;;
5696;SDS011;2873;50.966;7.210;2024-03-08T13:43:05;13.10;;;11.03;;
5696;SDS011;2873;50.966;7.210;2024-03-08T13:45:32;16.73;;;11.07;;
5696;SDS011;2873;50.966;7.210;2024-03-08T13:47:58;13.37;;;10.87;;
5696;SDS011;2873;50.966;7.210;2024-03-08T13:50:24;13.53;;;11.00;;
5696;SDS011;2873;50.966;7.210;2024-03-08T13:52:51;15.43;;;10.80;;
5696;SDS011;2873;50.966;7.210;2024-03-08T13:55:18;12.10;;;10.90;;
5696;SDS011;2873;50.966;7.210;2024-03-08T13:57:44;13.83;;;11.30;;
5696;SDS011;2873;50.966;7.210;2024-03-08T14:00:11;14.17;;;10.83;;
5696;SDS011;2873;50.966;7.210;2024-03-08T14:02:38;16.90;;;11.50;;
5696;SDS011;2873;50.966;7.210;2024-03-08T14:05:05;17.20;;;12.60;;
5696;SDS011;2873;50.966;7.210;2024-03-08T14:07:33;15.00;;;12.07;;
5696;SDS011;2873;50.966;7.210;2024-03-08T14:10:02;15.80;;;13.03;;
5696;SDS011;2873;50.966;7.210;2024-03-08T14:12:28;15.20;;;11.57;;
5696;SDS011;2873;50.966;7.210;2024-03-08T14:14:54;14.10;;;12.10;;
5696;SDS011;2873;50.966;7.210;2024-03-08T14:17:20;15.33;;;11.87;;
5696;SDS011;2873;50.966;7.210;2024-03-08T14:19:46;16.17;;;11.93;;
5696;SDS011;2873;50.966;7.210;2024-03-08T14:22:11;16.10;;;12.60;;
5696;SDS011;2873;50.966;7.210;2024-03-08T14:24:39;22.33;;;13.70;;
5696;SDS011;2873;50.966;7.210;2024-03-08T14:27:07;13.67;;;11.77;;
5696;SDS011;2873;50.966;7.210;2024-03-08T14:29:34;16.57;;;12.23;;
5696;SDS011;2873;50.966;7.210;2024-03-08T14:32:00;16.23;;;12.53;;
5696;SDS011;2873;50.966;7.210;2024-03-08T14:34:28;15.03;;;11.57;;
5696;SDS011;2873;50.966;7.210;2024-03-08T14:36:55;17.10;;;12.30;;
5696;SDS011;2873;50.966;7.210;2024-03-08T14:39:21;17.63;;;12.07;;
5696;SDS011;2873;50.966;7.210;2024-03-08T14:41:51;16.17;;;11.87;;
5696;SDS011;2873;50.966;7.210;2024-03-08T14:44:19;17.03;;;11.63;;
5696;SDS011;2873;50.966;7.210;2024-03-08T14:46:45;13.87;;;11.50;;
5696;SDS011;2873;50.966;7.210;2024-03-08T14:49:12;16.40;;;11.60;;
5696;SDS011;2873;50.966;7.210;2024-03-08T14:51:37;15.57;;;12.37;;
5696;SDS011;2873;50.966;7.210;2024-03-08T14:54:03;16.30;;;12.10;;
5696;SDS011;2873;50.966;7.210;2024-03-08T14:56:31;15.37;;;11.67;;
5696;SDS011;2873;50.966;7.210;2024-03-08T14:58:57;14.83;;;11.10;;
5696;SDS011;2873;50.966;7.210;2024-03-08T15:01:24;14.93;;;10.90;;